createdAt,value
2018-05-10T00:01:17.581Z,54.80
2018-05-10T00:03:43.811Z,54.80
2018-05-10T00:06:10.090Z,54.90
2018-05-10T00:08:36.371Z,54.90
2018-05-10T00:11:02.591Z,54.90
2018-05-10T00:13:28.812Z,55.50
2018-05-10T00:15:55.029Z,55.00
2018-05-10T00:18:21.257Z,55.10
2018-05-10T00:20:47.514Z,55.20
2018-05-10T00:23:13.689Z,55.30
2018-05-10T00:25:40.923Z,55.40
2018-05-10T00:28:07.898Z,55.60
2018-05-10T00:30:34.273Z,55.60
2018-05-10T00:33:00.459Z,55.70
2018-05-10T00:35:26.682Z,56.40
2018-05-10T00:37:53.471Z,56.00
2018-05-10T00:40:19.668Z,56.40
2018-05-10T00:42:46.611Z,56.80
2018-05-10T00:45:12.873Z,56.50
2018-05-10T00:47:39.799Z,56.70
2018-05-10T00:50:07.462Z,56.90
2018-05-10T00:52:34.394Z,57.10
2018-05-10T00:55:00.606Z,57.10
2018-05-10T00:57:26.873Z,57.20
2018-05-10T00:59:53.078Z,57.20
2018-05-10T01:02:19.322Z,57.30
2018-05-10T01:04:45.622Z,57.40
2018-05-10T01:07:11.766Z,57.50
2018-05-10T01:09:44.853Z,57.70
2018-05-10T01:12:11.493Z,57.70
2018-05-10T01:14:37.684Z,57.90
2018-05-10T01:17:03.834Z,57.80
2018-05-10T01:19:31.378Z,58.00
2018-05-10T01:21:58.390Z,58.00
2018-05-10T01:24:24.633Z,58.00
2018-05-10T01:26:50.883Z,58.00
2018-05-10T01:29:17.053Z,58.10
2018-05-10T01:31:44.250Z,58.10
2018-05-10T01:34:10.522Z,58.20
2018-05-10T01:36:36.682Z,58.00
2018-05-10T01:39:03.915Z,58.40
2018-05-10T01:41:30.109Z,58.40
2018-05-10T01:43:56.411Z,58.40
2018-05-10T01:46:23.422Z,58.40
2018-05-10T01:48:49.787Z,58.40
2018-05-10T01:51:16.012Z,58.40
2018-05-10T01:53:42.280Z,58.50
2018-05-10T01:56:08.499Z,58.40
2018-05-10T01:58:35.448Z,58.90
2018-05-10T02:01:02.480Z,58.60
2018-05-10T02:03:28.709Z,58.70
2018-05-10T02:05:54.937Z,58.70
2018-05-10T02:08:21.116Z,59.30
2018-05-10T02:10:48.191Z,59.00
2018-05-10T02:13:14.442Z,59.10
2018-05-10T02:15:40.627Z,59.10
2018-05-10T02:18:07.557Z,59.10
2018-05-10T02:20:33.763Z,59.20
2018-05-10T02:22:59.984Z,59.20
2018-05-10T02:25:26.181Z,59.30
2018-05-10T02:27:53.107Z,59.40
2018-05-10T02:30:19.313Z,59.50
2018-05-10T02:32:45.537Z,59.40
2018-05-10T02:35:12.030Z,59.50
2018-05-10T02:37:38.220Z,59.50
2018-05-10T02:40:04.379Z,59.50
2018-05-10T02:42:30.636Z,59.50
2018-05-10T02:44:57.673Z,59.60
2018-05-10T02:47:23.799Z,59.70
2018-05-10T02:49:50.056Z,59.60
2018-05-10T02:52:17.006Z,59.70
2018-05-10T02:54:43.215Z,59.70
2018-05-10T02:57:09.461Z,59.70
2018-05-10T03:02:08.694Z,59.90
2018-05-10T03:04:35.709Z,59.50
2018-05-10T03:07:01.878Z,60.00
2018-05-10T03:09:28.834Z,60.10
2018-05-10T03:11:55.085Z,60.20
2018-05-10T03:14:21.281Z,60.10
2018-05-10T03:16:48.960Z,60.40
2018-05-10T03:19:15.127Z,60.50
2018-05-10T03:21:41.327Z,60.20
2018-05-10T03:24:07.543Z,60.30
2018-05-10T03:26:33.731Z,60.40
2018-05-10T03:28:59.962Z,60.50
2018-05-10T03:31:28.028Z,60.50
2018-05-10T03:33:54.961Z,60.50
2018-05-10T03:36:22.623Z,60.60
2018-05-10T03:38:48.862Z,60.70
2018-05-10T03:41:15.096Z,60.50
2018-05-10T03:43:41.324Z,61.50
2018-05-10T03:46:07.505Z,60.90
2018-05-10T03:48:33.694Z,61.00
2018-05-10T03:50:59.901Z,61.00
2018-05-10T03:53:26.115Z,61.10
2018-05-10T03:55:52.295Z,61.30
2018-05-10T03:58:18.506Z,61.40
2018-05-10T04:00:44.698Z,61.40
2018-05-10T04:06:49.738Z,61.50
2018-05-10T04:09:34.643Z,61.60
2018-05-10T04:12:00.814Z,61.60
2018-05-10T04:14:27.032Z,61.70
2018-05-10T04:16:53.962Z,62.20
2018-05-10T04:19:21.881Z,62.50
2018-05-10T04:21:48.069Z,62.60
2018-05-10T04:24:14.248Z,62.40
2018-05-10T04:26:40.478Z,62.40
2018-05-10T04:29:06.765Z,62.50
2018-05-10T04:31:33.589Z,62.70
2018-05-10T04:33:59.814Z,62.70
2018-05-10T04:36:26.041Z,62.70
2018-05-10T04:38:52.192Z,62.70
2018-05-10T04:41:18.388Z,62.60
2018-05-10T04:43:45.308Z,62.50
2018-05-10T04:46:11.501Z,62.60
2018-05-10T04:48:37.809Z,62.50
2018-05-10T04:51:04.023Z,62.60
2018-05-10T04:53:31.634Z,62.30
2018-05-10T04:55:57.828Z,62.40
2018-05-10T04:58:24.012Z,62.20
2018-05-10T05:00:50.174Z,62.10
2018-05-10T05:03:16.504Z,62.20
2018-05-10T05:05:42.621Z,62.20
2018-05-10T05:08:08.819Z,62.90
2018-05-10T05:10:35.775Z,62.40
2018-05-10T05:13:01.973Z,62.40
2018-05-10T05:15:28.132Z,62.40
2018-05-10T05:17:54.308Z,62.50
2018-05-10T05:20:20.584Z,62.60
2018-05-10T05:22:46.893Z,62.70
2018-05-10T05:25:13.877Z,62.60
2018-05-10T05:27:40.862Z,62.40
2018-05-10T05:30:07.057Z,62.40
2018-05-10T05:32:34.033Z,62.10
2018-05-10T05:35:00.948Z,61.10
2018-05-10T05:37:27.204Z,60.90
2018-05-10T05:39:53.559Z,60.60
2018-05-10T05:42:19.776Z,59.60
2018-05-10T05:44:46.013Z,59.00
2018-05-10T05:47:12.952Z,58.60
2018-05-10T05:49:39.838Z,58.10
2018-05-10T05:52:06.112Z,57.50
2018-05-10T05:54:32.329Z,56.70
2018-05-10T05:56:58.571Z,56.30
2018-05-10T05:59:24.744Z,56.00
2018-05-10T06:01:50.942Z,55.30
2018-05-10T06:04:17.160Z,54.90
2018-05-10T06:06:43.396Z,54.50
2018-05-10T06:09:09.568Z,54.30
2018-05-10T06:11:35.797Z,53.90
2018-05-10T06:14:01.988Z,53.70
2018-05-10T06:16:28.242Z,53.50
2018-05-10T06:18:54.485Z,53.30
2018-05-10T06:21:20.696Z,52.90
2018-05-10T06:23:46.889Z,52.30
2018-05-10T06:26:13.798Z,51.90
2018-05-10T06:28:39.976Z,51.70
2018-05-10T06:31:06.889Z,51.10
2018-05-10T06:33:33.349Z,50.90
2018-05-10T06:35:59.794Z,50.50
2018-05-10T06:38:26.213Z,49.60
2018-05-10T06:40:53.440Z,48.60
2018-05-10T06:43:20.005Z,48.50
2018-05-10T06:45:47.018Z,47.30
2018-05-10T06:48:13.228Z,47.20
2018-05-10T06:50:39.437Z,46.90
2018-05-10T06:53:05.859Z,46.70
2018-05-10T06:55:32.150Z,46.70
2018-05-10T06:57:58.387Z,46.30
2018-05-10T07:00:24.661Z,45.80
2018-05-10T07:02:51.653Z,45.30
2018-05-10T07:05:17.876Z,45.30
2018-05-10T07:07:44.830Z,44.70
2018-05-10T07:10:11.059Z,44.50
2018-05-10T07:12:37.423Z,44.50
2018-05-10T07:15:03.644Z,44.40
2018-05-10T07:17:30.614Z,44.30
2018-05-10T07:19:56.832Z,44.20
2018-05-10T07:22:23.761Z,43.50
2018-05-10T07:24:51.417Z,43.00
2018-05-10T07:27:17.621Z,42.90
2018-05-10T07:29:43.838Z,42.60
2018-05-10T07:32:10.090Z,41.70
2018-05-10T07:34:36.331Z,41.40
2018-05-10T07:37:02.579Z,40.90
2018-05-10T07:39:28.826Z,40.60
2018-05-10T07:41:55.344Z,40.60
2018-05-10T07:44:21.809Z,40.70
2018-05-10T07:46:48.500Z,40.70
2018-05-10T07:49:15.245Z,40.20
2018-05-10T07:51:41.831Z,39.90
2018-05-10T07:54:08.041Z,39.60
2018-05-10T07:56:34.213Z,39.40
2018-05-10T07:59:00.726Z,39.50
2018-05-10T08:01:27.094Z,39.30
2018-05-10T08:03:53.392Z,38.90
2018-05-10T08:06:20.472Z,38.80
2018-05-10T08:08:46.966Z,38.10
2018-05-10T08:11:13.505Z,37.60
2018-05-10T08:13:40.004Z,37.00
2018-05-10T08:16:06.962Z,36.80
2018-05-10T08:18:34.786Z,35.90
2018-05-10T08:21:01.222Z,35.80
2018-05-10T08:23:45.904Z,35.50
2018-05-10T08:26:12.157Z,35.00
2018-05-10T08:28:38.351Z,34.40
2018-05-10T08:31:04.601Z,33.50
2018-05-10T08:33:30.996Z,33.00
2018-05-10T08:35:57.155Z,33.10
2018-05-10T08:38:23.346Z,33.30
2018-05-10T08:40:50.349Z,33.10
2018-05-10T08:43:16.571Z,33.00
2018-05-10T08:45:42.768Z,33.00
2018-05-10T08:48:09.862Z,32.70
2018-05-10T08:50:36.849Z,32.70
2018-05-10T08:53:03.110Z,32.90
2018-05-10T08:55:29.310Z,33.10
2018-05-10T08:57:55.500Z,32.90
2018-05-10T09:00:21.693Z,32.80
2018-05-10T09:02:48.708Z,32.40
2018-05-10T09:05:14.973Z,32.30
2018-05-10T09:07:41.198Z,31.90
2018-05-10T09:10:07.442Z,31.30
2018-05-10T09:12:34.161Z,31.20
2018-05-10T09:15:01.161Z,30.00
2018-05-10T09:17:27.999Z,29.90
2018-05-10T09:19:54.978Z,30.00
2018-05-10T09:22:21.745Z,30.00
2018-05-10T09:24:47.980Z,29.80
2018-05-10T09:27:14.191Z,29.60
2018-05-10T09:29:40.352Z,29.80
2018-05-10T09:32:06.570Z,29.90
2018-05-10T09:34:32.751Z,30.00
2018-05-10T09:36:58.925Z,30.40
2018-05-10T09:39:25.178Z,30.90
2018-05-10T09:41:51.343Z,31.10
2018-05-10T09:44:17.523Z,30.60
2018-05-10T09:46:43.690Z,30.60
2018-05-10T09:49:10.629Z,31.00
2018-05-10T09:51:36.791Z,31.00
2018-05-10T09:54:02.961Z,30.90
2018-05-10T09:56:29.905Z,30.60
2018-05-10T09:58:56.089Z,30.50
2018-05-10T10:01:22.300Z,30.10
2018-05-10T10:03:48.455Z,30.70
2018-05-10T10:06:14.711Z,30.80
2018-05-10T10:08:40.909Z,30.80
2018-05-10T10:11:07.092Z,30.90
2018-05-10T10:13:33.469Z,30.80
2018-05-10T10:15:59.686Z,30.40
2018-05-10T10:18:26.571Z,30.00
2018-05-10T10:20:52.757Z,29.90
2018-05-10T10:23:18.977Z,30.00
2018-05-10T10:25:45.137Z,29.60
2018-05-10T10:28:12.126Z,29.00
2018-05-10T10:30:38.345Z,29.00
2018-05-10T10:33:04.518Z,29.10
2018-05-10T10:35:30.712Z,29.10
2018-05-10T10:37:56.892Z,29.10
2018-05-10T10:40:23.062Z,29.20
2018-05-10T10:42:49.976Z,29.00
2018-05-10T10:45:16.190Z,29.00
2018-05-10T10:47:42.446Z,28.80
2018-05-10T10:50:08.633Z,28.90
2018-05-10T10:52:34.809Z,28.70
2018-05-10T10:55:00.975Z,28.90
2018-05-10T10:57:27.145Z,29.10
2018-05-10T10:59:53.419Z,29.00
2018-05-10T11:02:19.533Z,28.80
2018-05-10T11:04:45.797Z,28.90
2018-05-10T11:07:12.838Z,29.20
2018-05-10T11:09:38.966Z,29.10
2018-05-10T11:12:05.125Z,29.20
2018-05-10T11:14:32.058Z,28.30
2018-05-10T11:16:58.285Z,28.20
2018-05-10T11:19:24.540Z,28.10
2018-05-10T11:21:51.512Z,28.10
2018-05-10T11:24:18.420Z,28.30
2018-05-10T11:26:44.629Z,28.20
2018-05-10T11:29:10.805Z,28.60
2018-05-10T11:31:37.003Z,27.50
2018-05-10T11:34:03.212Z,27.10
2018-05-10T11:36:29.389Z,27.20
2018-05-10T11:38:56.238Z,27.30
2018-05-10T11:41:22.428Z,27.40
2018-05-10T11:43:48.624Z,27.40
2018-05-10T11:46:14.786Z,27.30
2018-05-10T11:48:41.039Z,27.30
2018-05-10T11:51:07.168Z,27.50
2018-05-10T11:53:33.393Z,27.30
2018-05-10T11:55:59.582Z,27.30
2018-05-10T11:58:25.781Z,27.10
2018-05-10T12:00:52.019Z,27.00
2018-05-10T12:03:18.207Z,27.40
2018-05-10T12:05:44.358Z,26.70
2018-05-10T12:08:10.639Z,26.60
2018-05-10T12:10:36.864Z,26.60
2018-05-10T12:13:03.081Z,26.60
2018-05-10T12:15:29.324Z,26.80
2018-05-10T12:17:55.519Z,26.80
2018-05-10T12:20:22.503Z,27.00
2018-05-10T12:22:48.596Z,26.90
2018-05-10T12:25:15.544Z,26.90
2018-05-10T12:27:41.741Z,26.80
2018-05-10T12:30:07.953Z,26.90
2018-05-10T12:32:34.255Z,26.80
2018-05-10T12:35:01.539Z,27.30
2018-05-10T12:37:27.712Z,26.80
2018-05-10T12:39:53.884Z,26.70
2018-05-10T12:42:20.794Z,26.40
2018-05-10T12:44:46.949Z,26.40
2018-05-10T12:47:13.105Z,26.30
2018-05-10T12:49:40.007Z,26.90
2018-05-10T12:52:06.925Z,27.00
2018-05-10T12:54:33.082Z,27.00
2018-05-10T12:56:59.257Z,27.10
2018-05-10T12:59:26.143Z,27.50
2018-05-10T13:01:52.296Z,27.50
2018-05-10T13:04:18.499Z,27.70
2018-05-10T13:06:44.763Z,28.00
2018-05-10T13:09:10.878Z,28.10
2018-05-10T13:11:37.139Z,28.20
2018-05-10T13:14:03.357Z,28.40
2018-05-10T13:16:29.552Z,28.40
2018-05-10T13:18:55.766Z,28.50
2018-05-10T13:21:21.988Z,28.50
2018-05-10T13:23:48.230Z,28.60
2018-05-10T13:26:14.458Z,28.60
2018-05-10T13:28:41.408Z,28.40
2018-05-10T13:31:07.596Z,28.40
2018-05-10T13:33:33.808Z,28.40
2018-05-10T13:36:00.293Z,28.50
2018-05-10T13:38:27.430Z,28.80
2018-05-10T13:40:53.664Z,28.80
2018-05-10T13:43:19.988Z,29.10
2018-05-10T13:45:46.183Z,29.30
2018-05-10T13:48:13.096Z,29.80
2018-05-10T13:50:39.281Z,29.70
2018-05-10T13:53:06.295Z,30.30
2018-05-10T13:55:33.146Z,30.50
2018-05-10T13:57:59.324Z,30.50
2018-05-10T14:00:26.255Z,31.10
2018-05-10T14:02:52.456Z,31.00
2018-05-10T14:05:18.957Z,31.20
2018-05-10T14:07:45.172Z,31.40
2018-05-10T14:10:11.504Z,31.60
2018-05-10T14:12:37.673Z,31.70
2018-05-10T14:15:03.877Z,31.70
2018-05-10T14:17:30.804Z,31.80
2018-05-10T14:19:56.976Z,31.80
2018-05-10T14:22:23.885Z,31.90
2018-05-10T14:24:50.849Z,31.90
2018-05-10T14:27:17.036Z,31.90
2018-05-10T14:29:43.257Z,33.20
2018-05-10T14:32:09.550Z,32.60
2018-05-10T14:34:36.507Z,32.80
2018-05-10T14:37:03.521Z,33.00
2018-05-10T14:39:29.847Z,33.00
2018-05-10T14:41:56.731Z,33.20
2018-05-10T14:44:22.906Z,33.20
2018-05-10T14:46:49.083Z,32.90
2018-05-10T14:49:15.294Z,32.80
2018-05-10T14:51:41.508Z,32.70
2018-05-10T14:54:07.715Z,32.60
2018-05-10T14:56:34.642Z,32.00
2018-05-10T14:59:00.810Z,32.00
2018-05-10T15:01:27.733Z,31.10
2018-05-10T15:03:53.904Z,31.10
2018-05-10T15:06:20.139Z,30.30
2018-05-10T15:08:47.318Z,29.90
2018-05-10T15:11:13.533Z,29.40
2018-05-10T15:13:40.482Z,29.10
2018-05-10T15:16:06.689Z,29.10
2018-05-10T15:18:32.856Z,29.20
2018-05-10T15:20:59.055Z,29.30
2018-05-10T15:23:25.253Z,29.40
2018-05-10T15:25:51.402Z,29.60
2018-05-10T15:28:17.612Z,29.60
2018-05-10T15:30:43.837Z,29.70
2018-05-10T15:33:10.042Z,29.90
2018-05-10T15:35:36.228Z,30.00
2018-05-10T15:38:02.387Z,30.30
2018-05-10T15:40:28.523Z,30.50
2018-05-10T15:42:54.712Z,30.60
2018-05-10T15:45:20.960Z,30.50
2018-05-10T15:47:47.150Z,30.10
2018-05-10T15:50:13.481Z,30.00
2018-05-10T15:52:39.691Z,30.00
2018-05-10T15:55:05.859Z,29.90
2018-05-10T15:57:32.793Z,30.00
2018-05-10T15:59:59.714Z,30.10
2018-05-10T16:02:26.251Z,30.00
2018-05-10T16:04:52.433Z,29.80
2018-05-10T16:07:19.351Z,29.60
2018-05-10T16:09:45.552Z,29.60
2018-05-10T16:12:11.738Z,29.40
2018-05-10T16:14:37.924Z,29.30
2018-05-10T16:17:04.096Z,29.40
2018-05-10T16:19:30.330Z,29.50
2018-05-10T16:21:56.468Z,29.60
2018-05-10T16:24:23.392Z,29.60
2018-05-10T16:26:49.560Z,29.60
2018-05-10T16:29:16.448Z,29.70
2018-05-10T16:31:42.650Z,29.70
2018-05-10T16:34:08.815Z,29.70
2018-05-10T16:36:34.969Z,29.70
2018-05-10T16:39:01.103Z,29.60
2018-05-10T16:41:27.715Z,29.50
2018-05-10T16:43:53.892Z,29.50
2018-05-10T16:46:20.229Z,29.60
2018-05-10T16:48:47.153Z,29.80
2018-05-10T16:51:13.419Z,29.80
2018-05-10T16:53:40.324Z,29.80
2018-05-10T16:56:06.482Z,29.80
2018-05-10T16:58:32.686Z,29.80
2018-05-10T17:00:58.870Z,29.90
2018-05-10T17:03:25.039Z,30.00
2018-05-10T17:05:51.965Z,30.20
2018-05-10T17:08:18.925Z,30.30
2018-05-10T17:10:45.868Z,30.50
2018-05-10T17:13:12.781Z,30.70
2018-05-10T17:15:38.974Z,30.60
2018-05-10T17:18:05.137Z,30.90
2018-05-10T17:20:31.295Z,31.10
2018-05-10T17:22:57.457Z,31.40
2018-05-10T17:25:24.369Z,32.40
2018-05-10T17:27:50.577Z,32.40
2018-05-10T17:30:16.722Z,33.60
2018-05-10T17:32:42.889Z,33.60
2018-05-10T17:35:09.164Z,33.90
2018-05-10T17:37:35.321Z,34.20
2018-05-10T17:40:01.534Z,34.40
2018-05-10T17:42:27.733Z,34.70
2018-05-10T17:44:54.003Z,35.00
2018-05-10T17:47:20.228Z,35.30
2018-05-10T17:49:46.417Z,35.60
2018-05-10T17:52:12.561Z,36.00
2018-05-10T17:54:38.761Z,36.30
2018-05-10T17:57:05.076Z,36.50
2018-05-10T17:59:31.221Z,36.80
2018-05-10T18:01:57.458Z,37.20
2018-05-10T18:04:23.616Z,37.20
2018-05-10T18:06:49.790Z,37.40
2018-05-10T18:09:16.004Z,37.60
2018-05-10T18:11:42.239Z,37.70
2018-05-10T18:14:08.386Z,37.80
2018-05-10T18:16:35.321Z,38.00
2018-05-10T18:19:01.513Z,38.10
2018-05-10T18:21:27.767Z,38.10
2018-05-10T18:23:53.935Z,38.20
2018-05-10T18:26:20.875Z,38.20
2018-05-10T18:28:47.769Z,38.40
2018-05-10T18:31:14.019Z,38.50
2018-05-10T18:33:40.233Z,38.50
2018-05-10T18:36:06.652Z,38.60
2018-05-10T18:38:32.973Z,38.80
2018-05-10T18:40:59.928Z,39.00
2018-05-10T18:43:26.133Z,39.10
2018-05-10T18:45:53.097Z,39.40
2018-05-10T18:48:19.256Z,39.30
2018-05-10T18:50:45.386Z,39.40
2018-05-10T18:53:11.547Z,39.90
2018-05-10T18:55:38.021Z,40.50
2018-05-10T18:58:04.153Z,40.90
2018-05-10T19:00:31.095Z,41.30
2018-05-10T19:02:57.245Z,41.30
2018-05-10T19:05:23.400Z,41.30
2018-05-10T19:07:50.190Z,41.20
2018-05-10T19:10:16.356Z,41.10
2018-05-10T19:12:42.525Z,41.30
2018-05-10T19:15:08.672Z,41.50
2018-05-10T19:17:34.800Z,41.80
2018-05-10T19:20:00.972Z,41.80
2018-05-10T19:22:27.139Z,41.90
2018-05-10T19:24:53.348Z,42.00
2018-05-10T19:27:19.489Z,42.30
2018-05-10T19:29:45.637Z,42.50
2018-05-10T19:32:11.851Z,42.50
2018-05-10T19:34:38.100Z,42.60
2018-05-10T19:37:04.237Z,42.70
2018-05-10T19:39:30.786Z,42.70
2018-05-10T19:41:56.969Z,42.90
2018-05-10T19:44:23.864Z,43.30
2018-05-10T19:46:49.999Z,43.40
2018-05-10T19:49:16.229Z,43.50
2018-05-10T19:51:42.462Z,43.70
2018-05-10T19:54:08.633Z,43.90
2018-05-10T19:56:35.600Z,44.30
2018-05-10T19:59:01.758Z,44.30
2018-05-10T20:01:27.904Z,44.40
2018-05-10T20:03:54.065Z,45.00
2018-05-10T20:06:20.188Z,45.80
2018-05-10T20:08:47.118Z,47.80
2018-05-10T20:11:13.368Z,47.90
2018-05-10T20:13:40.409Z,49.30
2018-05-10T20:16:06.510Z,49.50
2018-05-10T20:18:32.692Z,49.10
2018-05-10T20:20:59.613Z,49.40
2018-05-10T20:23:25.739Z,49.40
2018-05-10T20:25:51.879Z,49.40
2018-05-10T20:28:18.266Z,49.70
2018-05-10T20:30:44.595Z,49.90
2018-05-10T20:33:11.474Z,50.10
2018-05-10T20:35:37.649Z,50.10
2018-05-10T20:38:03.836Z,50.20
2018-05-10T20:40:30.057Z,50.20
2018-05-10T20:42:56.972Z,50.40
2018-05-10T20:45:23.168Z,50.40
2018-05-10T20:47:49.390Z,50.40
2018-05-10T20:50:15.583Z,50.90
2018-05-10T20:52:41.742Z,50.40
2018-05-10T20:55:07.999Z,50.40
2018-05-10T20:57:34.199Z,50.50
2018-05-10T21:00:00.392Z,50.50
2018-05-10T21:02:26.603Z,50.60
2018-05-10T21:04:52.735Z,50.70
2018-05-10T21:07:19.470Z,50.80
2018-05-10T21:09:45.729Z,50.90
2018-05-10T21:15:21.815Z,51.40
2018-05-10T21:17:48.022Z,51.00
2018-05-10T21:20:14.277Z,51.30
2018-05-10T21:22:40.484Z,51.50
2018-05-10T21:25:06.620Z,51.70
2018-05-10T21:27:32.781Z,51.80
2018-05-10T21:29:58.912Z,52.00
2018-05-10T21:32:26.098Z,52.40
2018-05-10T21:34:52.325Z,52.40
2018-05-10T21:37:18.559Z,52.50
2018-05-10T21:39:45.486Z,53.00
2018-05-10T21:42:11.628Z,53.10
2018-05-10T21:44:37.859Z,53.30
2018-05-10T21:47:04.047Z,53.50
2018-05-10T21:49:48.777Z,53.60
2018-05-10T21:52:14.936Z,53.70
2018-05-10T21:54:41.198Z,53.50
2018-05-10T21:57:07.356Z,53.90
2018-05-10T21:59:33.497Z,54.00
2018-05-10T22:01:59.669Z,54.10
2018-05-10T22:04:25.838Z,54.30
2018-05-10T22:06:51.981Z,54.30
2018-05-10T22:09:18.193Z,54.30
2018-05-10T22:11:44.364Z,55.10
2018-05-10T22:14:11.285Z,54.70
2018-05-10T22:16:37.503Z,54.80
2018-05-10T22:19:03.729Z,54.80
2018-05-10T22:21:29.934Z,54.80
2018-05-10T22:23:56.141Z,55.00
2018-05-10T22:26:23.135Z,55.00
2018-05-10T22:28:49.552Z,55.10
2018-05-10T22:31:16.589Z,55.20
2018-05-10T22:33:42.750Z,55.20
2018-05-10T22:36:09.690Z,55.50
2018-05-10T22:38:35.908Z,55.60
2018-05-10T22:41:02.067Z,55.50
2018-05-10T22:43:28.526Z,55.70
2018-05-10T22:45:54.688Z,55.90
2018-05-10T22:48:20.884Z,55.90
2018-05-10T22:50:47.093Z,56.10
2018-05-10T22:53:13.264Z,56.20
2018-05-10T22:55:39.445Z,56.30
2018-05-10T22:58:05.622Z,56.40
2018-05-10T23:00:31.780Z,56.50
2018-05-10T23:02:57.984Z,56.60
2018-05-10T23:05:30.220Z,56.60
2018-05-10T23:07:56.447Z,56.60
2018-05-10T23:10:22.609Z,56.60
2018-05-10T23:12:48.819Z,56.60
2018-05-10T23:15:15.729Z,56.90
2018-05-10T23:17:42.720Z,56.90
2018-05-10T23:20:08.903Z,56.90
2018-05-10T23:22:35.090Z,57.10
2018-05-10T23:25:02.024Z,57.30
2018-05-10T23:27:35.119Z,57.40
2018-05-10T23:30:01.289Z,57.40
2018-05-10T23:32:27.525Z,57.50
2018-05-10T23:34:53.701Z,57.50
2018-05-10T23:37:20.693Z,57.60
2018-05-10T23:39:46.877Z,57.70
2018-05-10T23:42:13.073Z,57.70
2018-05-10T23:44:39.267Z,57.80
2018-05-10T23:47:05.448Z,57.70
2018-05-10T23:49:31.657Z,57.80
2018-05-10T23:51:58.612Z,58.00
2018-05-10T23:54:25.569Z,57.90
2018-05-10T23:56:51.754Z,58.00
2018-05-10T23:59:17.935Z,58.00
